createdAt,value
2017-07-03T00:00:19.330Z,17.04
2017-07-03T00:00:45.443Z,16.94
2017-07-03T00:01:11.574Z,16.99
2017-07-03T00:01:37.679Z,16.94
2017-07-03T00:02:03.790Z,16.97
2017-07-03T00:02:29.963Z,17.02
2017-07-03T00:02:56.124Z,17.06
2017-07-03T00:03:22.242Z,16.97
2017-07-03T00:03:48.371Z,16.99
2017-07-03T00:04:14.460Z,17.01
2017-07-03T00:04:40.591Z,17.05
2017-07-03T00:05:06.696Z,16.94
2017-07-03T00:05:32.808Z,17.04
2017-07-03T00:05:58.906Z,16.99
2017-07-03T00:06:25.039Z,17.01
2017-07-03T00:06:51.155Z,16.96
2017-07-03T00:07:17.275Z,16.99
2017-07-03T00:07:43.382Z,17.05
2017-07-03T00:08:09.501Z,17.02
2017-07-03T00:08:35.641Z,17.02
2017-07-03T00:09:01.797Z,17.05
2017-07-03T00:09:27.923Z,16.94
2017-07-03T00:09:54.083Z,16.97
2017-07-03T00:10:20.204Z,17.06
2017-07-03T00:10:46.323Z,17.08
2017-07-03T00:11:12.429Z,16.97
2017-07-03T00:11:38.600Z,17.01
2017-07-03T00:12:04.737Z,17.02
2017-07-03T00:12:30.902Z,17.01
2017-07-03T00:12:57.023Z,16.97
2017-07-03T00:13:23.137Z,17.01
2017-07-03T00:13:49.344Z,17.02
2017-07-03T00:14:15.472Z,17.04
2017-07-03T00:14:41.598Z,17.02
2017-07-03T00:15:07.691Z,17.02
2017-07-03T00:15:33.803Z,17.02
2017-07-03T00:15:59.941Z,17.06
2017-07-03T00:16:26.089Z,16.99
2017-07-03T00:16:52.177Z,17.11
2017-07-03T00:17:18.282Z,17.02
2017-07-03T00:17:44.381Z,17.04
2017-07-03T00:18:10.495Z,17.04
2017-07-03T00:18:36.597Z,17.05
2017-07-03T00:19:02.787Z,16.97
2017-07-03T00:19:28.896Z,16.99
2017-07-03T00:19:54.995Z,17.04
2017-07-03T00:20:21.114Z,17.04
2017-07-03T00:20:47.272Z,17.02
2017-07-03T00:21:13.399Z,17.01
2017-07-03T00:21:39.488Z,17.02
2017-07-03T00:22:05.590Z,17.02
2017-07-03T00:22:31.722Z,17.11
2017-07-03T00:22:57.833Z,17.04
2017-07-03T00:23:23.960Z,17.11
2017-07-03T00:23:50.094Z,17.02
2017-07-03T00:24:16.212Z,17.04
2017-07-03T00:24:42.358Z,16.94
2017-07-03T00:25:08.519Z,17.09
2017-07-03T00:25:34.688Z,17.09
2017-07-03T00:26:00.820Z,17.02
2017-07-03T00:26:26.931Z,16.99
2017-07-03T00:26:53.134Z,17.08
2017-07-03T00:27:19.241Z,16.97
2017-07-03T00:27:45.358Z,17.01
2017-07-03T00:28:11.476Z,16.97
2017-07-03T00:28:37.634Z,17.02
2017-07-03T00:29:03.810Z,16.93
2017-07-03T00:29:29.969Z,16.87
2017-07-03T00:29:56.101Z,16.93
2017-07-03T00:30:22.250Z,16.84
2017-07-03T00:30:48.367Z,16.91
2017-07-03T00:31:14.500Z,16.89
2017-07-03T00:31:40.618Z,16.9
2017-07-03T00:32:06.753Z,16.87
2017-07-03T00:32:32.846Z,16.9
2017-07-03T00:32:58.958Z,16.83
2017-07-03T00:33:25.068Z,16.87
2017-07-03T00:33:51.190Z,16.79
2017-07-03T00:34:17.301Z,16.76
2017-07-03T00:34:43.435Z,16.79
2017-07-03T00:35:09.618Z,16.84
2017-07-03T00:35:35.710Z,16.79
2017-07-03T00:36:01.839Z,16.83
2017-07-03T00:36:27.999Z,16.83
2017-07-03T00:36:54.092Z,16.81
2017-07-03T00:37:20.214Z,16.81
2017-07-03T00:37:46.377Z,16.76
2017-07-03T00:38:12.537Z,16.79
2017-07-03T00:38:38.693Z,16.74
2017-07-03T00:39:04.833Z,16.69
2017-07-03T00:39:30.963Z,16.72
2017-07-03T00:39:57.096Z,16.78
2017-07-03T00:40:23.211Z,16.72
2017-07-03T00:40:49.337Z,16.72
2017-07-03T00:41:15.471Z,16.74
2017-07-03T00:41:41.561Z,16.74
2017-07-03T00:42:07.658Z,16.74
2017-07-03T00:42:33.791Z,16.75
2017-07-03T00:42:59.933Z,16.66
2017-07-03T00:43:26.047Z,16.74
2017-07-03T00:43:52.267Z,16.69
2017-07-03T00:44:18.364Z,16.65
2017-07-03T00:44:44.479Z,16.76
2017-07-03T00:45:10.611Z,16.68
2017-07-03T00:45:36.737Z,16.75
2017-07-03T00:46:02.853Z,16.72
2017-07-03T00:46:28.957Z,16.61
2017-07-03T00:46:55.117Z,16.75
2017-07-03T00:47:21.204Z,16.66
2017-07-03T00:47:47.302Z,16.81
2017-07-03T00:48:13.395Z,16.79
2017-07-03T00:48:39.553Z,16.74
2017-07-03T00:49:05.653Z,16.72
2017-07-03T00:49:31.790Z,16.75
2017-07-03T00:49:57.922Z,16.69
2017-07-03T00:50:24.053Z,16.68
2017-07-03T00:50:50.165Z,16.69
2017-07-03T00:51:16.264Z,16.68
2017-07-03T00:51:42.368Z,16.72
2017-07-03T00:52:08.458Z,16.75
2017-07-03T00:52:34.604Z,16.68
2017-07-03T00:53:00.766Z,16.56
2017-07-03T00:53:26.860Z,16.6
2017-07-03T00:53:53.045Z,16.64
2017-07-03T00:54:19.157Z,16.6
2017-07-03T00:54:45.335Z,16.58
2017-07-03T00:55:11.469Z,16.58
2017-07-03T00:55:37.560Z,16.64
2017-07-03T00:56:03.654Z,16.58
2017-07-03T00:56:29.759Z,16.61
2017-07-03T00:56:55.876Z,16.51
2017-07-03T00:57:22.013Z,16.6
2017-07-03T00:57:48.199Z,16.57
2017-07-03T00:58:14.324Z,16.51
2017-07-03T00:58:40.487Z,16.49
2017-07-03T00:59:06.620Z,16.51
2017-07-03T00:59:32.714Z,16.57
2017-07-03T00:59:58.817Z,16.54
2017-07-03T01:00:24.911Z,16.43
2017-07-03T01:00:51.027Z,16.53
2017-07-03T01:01:17.160Z,16.5
2017-07-03T01:01:43.259Z,16.56
2017-07-03T01:02:09.352Z,16.47
2017-07-03T01:02:35.455Z,16.47
2017-07-03T01:03:01.553Z,16.58
2017-07-03T01:03:27.740Z,16.57
2017-07-03T01:03:53.896Z,16.56
2017-07-03T01:04:20.001Z,16.57
2017-07-03T01:04:46.095Z,16.58
2017-07-03T01:05:12.192Z,16.57
2017-07-03T01:05:38.308Z,16.58
2017-07-03T01:06:04.462Z,16.61
2017-07-03T01:06:30.559Z,16.58
2017-07-03T01:06:56.646Z,16.58
2017-07-03T01:07:22.799Z,16.61
2017-07-03T01:07:48.931Z,16.58
2017-07-03T01:08:15.068Z,16.58
2017-07-03T01:08:41.215Z,16.6
2017-07-03T01:09:07.349Z,16.54
2017-07-03T01:09:33.487Z,16.58
2017-07-03T01:09:59.608Z,16.51
2017-07-03T01:10:25.759Z,16.5
2017-07-03T01:10:51.861Z,16.54
2017-07-03T01:11:17.995Z,16.49
2017-07-03T01:11:44.180Z,16.51
2017-07-03T01:12:10.280Z,16.56
2017-07-03T01:12:36.385Z,16.47
2017-07-03T01:13:02.474Z,16.46
2017-07-03T01:13:28.593Z,16.57
2017-07-03T01:13:54.725Z,16.46
2017-07-03T01:14:20.845Z,16.46
2017-07-03T01:14:46.957Z,16.51
2017-07-03T01:15:13.065Z,16.46
2017-07-03T01:15:39.162Z,16.47
2017-07-03T01:16:05.287Z,16.43
2017-07-03T01:16:31.378Z,16.5
2017-07-03T01:16:57.499Z,16.42
2017-07-03T01:17:23.604Z,16.54
2017-07-03T01:17:49.695Z,16.46
2017-07-03T01:18:15.884Z,16.46
2017-07-03T01:18:42.015Z,16.54
2017-07-03T01:19:08.191Z,16.54
2017-07-03T01:19:34.352Z,16.47
2017-07-03T01:20:00.510Z,16.47
2017-07-03T01:20:26.667Z,16.47
2017-07-03T01:20:52.756Z,16.6
2017-07-03T01:21:18.887Z,16.53
2017-07-03T01:21:45.003Z,16.49
2017-07-03T01:22:11.141Z,16.5
2017-07-03T01:22:37.263Z,16.47
2017-07-03T01:23:03.377Z,16.46
2017-07-03T01:23:29.483Z,16.43
2017-07-03T01:23:55.583Z,16.46
2017-07-03T01:24:21.697Z,16.43
2017-07-03T01:24:47.826Z,16.49
2017-07-03T01:25:13.959Z,16.47
2017-07-03T01:25:40.098Z,16.41
2017-07-03T01:26:06.200Z,16.47
2017-07-03T01:26:32.328Z,16.31
2017-07-03T01:26:58.418Z,16.42
2017-07-03T01:27:24.514Z,16.46
2017-07-03T01:27:50.619Z,16.46
2017-07-03T01:28:16.713Z,16.35
2017-07-03T01:28:42.853Z,16.32
2017-07-03T01:29:08.986Z,16.36
2017-07-03T01:29:35.083Z,16.23
2017-07-03T01:30:01.171Z,16.23
2017-07-03T01:30:27.326Z,16.2
2017-07-03T01:30:53.479Z,16.31
2017-07-03T01:31:19.569Z,16.28
2017-07-03T01:31:45.672Z,16.29
2017-07-03T01:32:11.890Z,16.31
2017-07-03T01:32:38.006Z,16.29
2017-07-03T01:33:04.181Z,16.23
2017-07-03T01:33:30.319Z,16.24
2017-07-03T01:33:56.454Z,16.23
2017-07-03T01:34:22.582Z,16.29
2017-07-03T01:34:48.748Z,16.26
2017-07-03T01:35:14.876Z,16.29
2017-07-03T01:35:40.981Z,16.23
2017-07-03T01:36:07.121Z,16.26
2017-07-03T01:36:33.248Z,16.31
2017-07-03T01:36:59.380Z,16.28
2017-07-03T01:37:25.497Z,16.16
2017-07-03T01:37:51.640Z,16.09
2017-07-03T01:38:17.765Z,16.05
2017-07-03T01:38:43.917Z,16.08
2017-07-03T01:39:10.048Z,16
2017-07-03T01:39:36.135Z,15.95
2017-07-03T01:40:02.312Z,15.9
2017-07-03T01:40:28.443Z,15.82
2017-07-03T01:40:54.556Z,15.92
2017-07-03T01:41:20.653Z,15.86
2017-07-03T01:41:46.757Z,15.82
2017-07-03T01:42:12.851Z,15.86
2017-07-03T01:42:38.965Z,15.9
2017-07-03T01:43:05.096Z,15.92
2017-07-03T01:43:31.217Z,15.79
2017-07-03T01:43:57.317Z,15.7
2017-07-03T01:44:23.434Z,15.75
2017-07-03T01:44:49.603Z,15.7
2017-07-03T01:45:15.709Z,15.73
2017-07-03T01:45:41.824Z,15.68
2017-07-03T01:46:07.913Z,15.67
2017-07-03T01:46:34.049Z,15.65
2017-07-03T01:47:00.146Z,15.68
2017-07-03T01:47:26.235Z,15.76
2017-07-03T01:47:52.394Z,15.68
2017-07-03T01:48:18.576Z,15.67
2017-07-03T01:48:44.715Z,15.62
2017-07-03T01:49:10.916Z,15.65
2017-07-03T01:49:37.006Z,15.58
2017-07-03T01:50:03.169Z,15.57
2017-07-03T01:50:29.295Z,15.58
2017-07-03T01:50:55.386Z,15.58
2017-07-03T01:51:21.492Z,15.59
2017-07-03T01:51:47.590Z,15.65
2017-07-03T01:52:13.704Z,15.65
2017-07-03T01:52:39.861Z,15.52
2017-07-03T01:53:06.020Z,15.55
2017-07-03T01:53:32.158Z,15.55
2017-07-03T01:53:58.332Z,15.52
2017-07-03T01:54:24.494Z,15.51
2017-07-03T01:54:50.608Z,15.52
2017-07-03T01:55:16.711Z,15.52
2017-07-03T01:55:42.802Z,15.47
2017-07-03T01:56:08.925Z,15.47
2017-07-03T01:56:35.031Z,15.44
2017-07-03T01:57:01.147Z,15.49
2017-07-03T01:57:27.321Z,15.43
2017-07-03T01:57:53.425Z,15.43
2017-07-03T01:58:19.592Z,15.47
2017-07-03T01:58:45.735Z,15.35
2017-07-03T01:59:11.923Z,15.37
2017-07-03T01:59:38.040Z,15.42
2017-07-03T02:00:04.154Z,15.36
2017-07-03T02:00:30.282Z,15.35
2017-07-03T02:00:56.435Z,15.43
2017-07-03T02:01:22.538Z,15.42
2017-07-03T02:01:48.655Z,15.46
2017-07-03T02:02:14.749Z,15.43
2017-07-03T02:02:40.854Z,15.4
2017-07-03T02:03:06.993Z,15.37
2017-07-03T02:03:33.174Z,15.43
2017-07-03T02:03:59.326Z,15.4
2017-07-03T02:04:25.501Z,15.43
2017-07-03T02:04:51.676Z,15.43
2017-07-03T02:05:17.836Z,15.44
2017-07-03T02:05:43.998Z,15.49
2017-07-03T02:06:10.139Z,15.35
2017-07-03T02:06:36.254Z,15.37
2017-07-03T02:07:02.432Z,15.36
2017-07-03T02:07:28.562Z,15.31
2017-07-03T02:07:54.762Z,15.31
2017-07-03T02:08:20.943Z,15.27
2017-07-03T02:08:47.130Z,15.43
2017-07-03T02:09:13.314Z,15.44
2017-07-03T02:09:39.465Z,15.43
2017-07-03T02:10:05.601Z,15.39
2017-07-03T02:10:31.704Z,15.43
2017-07-03T02:10:57.826Z,15.36
2017-07-03T02:11:23.960Z,15.43
2017-07-03T02:11:50.062Z,15.43
2017-07-03T02:12:16.185Z,15.42
2017-07-03T02:12:42.294Z,15.31
2017-07-03T02:13:08.513Z,15.27
2017-07-03T02:13:34.627Z,15.29
2017-07-03T02:14:00.809Z,15.43
2017-07-03T02:14:26.995Z,15.4
2017-07-03T02:14:53.158Z,15.27
2017-07-03T02:15:19.281Z,15.24
2017-07-03T02:15:45.470Z,15.29
2017-07-03T02:16:11.684Z,15.24
2017-07-03T02:16:37.808Z,15.27
2017-07-03T02:17:03.971Z,15.25
2017-07-03T02:17:30.090Z,15.21
2017-07-03T02:17:56.249Z,15.24
2017-07-03T02:18:22.418Z,15.14
2017-07-03T02:18:48.600Z,15.18
2017-07-03T02:19:14.730Z,15.17
2017-07-03T02:19:40.918Z,15.14
2017-07-03T02:20:07.064Z,15.17
2017-07-03T02:20:33.173Z,15.14
2017-07-03T02:20:59.327Z,15.18
2017-07-03T02:21:25.482Z,15.14
2017-07-03T02:21:51.588Z,15.14
2017-07-03T02:22:17.690Z,15.17
2017-07-03T02:22:43.899Z,15.06
2017-07-03T02:23:10.008Z,15.04
2017-07-03T02:23:36.160Z,15.1
2017-07-03T02:24:02.293Z,15.1
2017-07-03T02:24:28.397Z,15.09
2017-07-03T02:24:54.549Z,15.14
2017-07-03T02:25:20.693Z,15.17
2017-07-03T02:25:46.852Z,15.21
2017-07-03T02:26:12.974Z,15.29
2017-07-03T02:26:39.146Z,15.27
2017-07-03T02:27:05.278Z,15.36
2017-07-03T02:27:31.389Z,15.24
2017-07-03T02:27:57.537Z,15.28
2017-07-03T02:28:23.729Z,15.36
2017-07-03T02:28:49.931Z,15.28
2017-07-03T02:29:16.092Z,15.27
2017-07-03T02:29:42.268Z,15.33
2017-07-03T02:30:08.476Z,15.36
2017-07-03T02:30:34.583Z,15.33
2017-07-03T02:31:00.787Z,15.4
2017-07-03T02:31:26.939Z,15.35
2017-07-03T02:31:53.042Z,15.28
2017-07-03T02:32:19.206Z,15.39
2017-07-03T02:32:45.416Z,15.4
2017-07-03T02:33:11.522Z,15.44
2017-07-03T02:33:37.687Z,15.42
2017-07-03T02:34:03.802Z,15.43
2017-07-03T02:34:29.938Z,15.35
2017-07-03T02:34:56.089Z,15.28
2017-07-03T02:35:22.214Z,15.28
2017-07-03T02:35:48.381Z,15.29
2017-07-03T02:36:14.533Z,15.28
2017-07-03T02:36:40.653Z,15.29
2017-07-03T02:37:06.796Z,15.33
2017-07-03T02:37:32.898Z,15.36
2017-07-03T02:37:59.013Z,15.31
2017-07-03T02:38:25.166Z,15.35
2017-07-03T02:38:51.263Z,15.28
2017-07-03T02:39:17.432Z,15.35
2017-07-03T02:39:43.566Z,15.29
2017-07-03T02:40:09.713Z,15.28
2017-07-03T02:40:35.826Z,15.35
2017-07-03T02:41:01.962Z,15.29
2017-07-03T02:41:28.134Z,15.28
2017-07-03T02:41:54.287Z,15.29
2017-07-03T02:42:20.415Z,15.14
2017-07-03T02:42:46.530Z,15.14
2017-07-03T02:43:12.680Z,15.1
2017-07-03T02:43:38.811Z,15.14
2017-07-03T02:44:04.973Z,15.07
2017-07-03T02:44:31.094Z,15.07
2017-07-03T02:44:57.200Z,15.15
2017-07-03T02:45:23.316Z,15.17
2017-07-03T02:45:49.427Z,15.17
2017-07-03T02:46:15.533Z,15.17
2017-07-03T02:46:41.682Z,15.25
2017-07-03T02:47:07.809Z,15.21
2017-07-03T02:47:33.922Z,15.17
2017-07-03T02:48:00.066Z,15.19
2017-07-03T02:48:26.173Z,15.25
2017-07-03T02:48:52.357Z,15.27
2017-07-03T02:49:18.541Z,15.14
2017-07-03T02:49:44.736Z,15.19
2017-07-03T02:50:10.865Z,15.1
2017-07-03T02:50:36.989Z,15.14
2017-07-03T02:51:03.121Z,15.06
2017-07-03T02:51:29.238Z,15.14
2017-07-03T02:51:55.371Z,15.1
2017-07-03T02:52:21.474Z,15.07
2017-07-03T02:52:47.597Z,15.18
2017-07-03T02:53:13.706Z,15.15
2017-07-03T02:53:39.807Z,15.18
2017-07-03T02:54:05.955Z,15.19
2017-07-03T02:54:32.098Z,15.14
2017-07-03T02:54:58.230Z,15.14
2017-07-03T02:55:24.398Z,15.19
2017-07-03T02:55:50.552Z,15.27
2017-07-03T02:56:16.651Z,15.31
2017-07-03T02:56:42.762Z,15.11
2017-07-03T02:57:08.910Z,15.1
2017-07-03T02:57:35.071Z,15.09
2017-07-03T02:58:01.208Z,15.07
2017-07-03T02:58:27.416Z,15.07
2017-07-03T02:58:53.552Z,15.04
2017-07-03T02:59:19.662Z,15.1
2017-07-03T02:59:45.864Z,15.03
2017-07-03T03:00:12.009Z,15.1
2017-07-03T03:00:38.164Z,15.1
2017-07-03T03:01:04.313Z,15.11
2017-07-03T03:01:30.429Z,15.11
2017-07-03T03:01:56.541Z,15.07
2017-07-03T03:02:22.644Z,15.07
2017-07-03T03:02:48.803Z,15.11
2017-07-03T03:03:14.953Z,15.15
2017-07-03T03:03:41.068Z,15.17
2017-07-03T03:04:07.172Z,15.14
2017-07-03T03:04:33.349Z,15.17
2017-07-03T03:04:59.522Z,15.14
2017-07-03T03:05:25.626Z,15.04
2017-07-03T03:05:51.744Z,15.07
2017-07-03T03:06:17.894Z,15.06
2017-07-03T03:06:44.041Z,15
2017-07-03T03:07:10.154Z,14.99
2017-07-03T03:07:36.289Z,14.97
2017-07-03T03:08:02.406Z,15
2017-07-03T03:08:28.522Z,15.02
2017-07-03T03:08:54.703Z,14.99
2017-07-03T03:09:20.851Z,15.04
2017-07-03T03:09:47.030Z,15.07
2017-07-03T03:10:13.133Z,15.06
2017-07-03T03:10:39.243Z,15.1
2017-07-03T03:11:05.362Z,15.07
2017-07-03T03:11:31.493Z,14.99
2017-07-03T03:11:57.663Z,14.99
2017-07-03T03:12:23.782Z,15.07
2017-07-03T03:12:49.914Z,14.96
2017-07-03T03:13:16.035Z,14.96
2017-07-03T03:13:42.162Z,14.84
2017-07-03T03:14:08.360Z,14.85
2017-07-03T03:14:34.570Z,14.84
2017-07-03T03:15:00.736Z,14.81
2017-07-03T03:15:26.873Z,14.77
2017-07-03T03:15:53.061Z,14.69
2017-07-03T03:16:19.162Z,14.68
2017-07-03T03:16:45.297Z,14.73
2017-07-03T03:17:11.418Z,14.73
2017-07-03T03:17:37.555Z,14.73
2017-07-03T03:18:03.660Z,14.72
2017-07-03T03:18:29.804Z,14.7
2017-07-03T03:18:55.935Z,14.69
2017-07-03T03:19:22.109Z,14.77
2017-07-03T03:19:48.303Z,14.86
2017-07-03T03:20:14.413Z,14.84
2017-07-03T03:20:40.556Z,14.73
2017-07-03T03:21:06.671Z,14.73
2017-07-03T03:21:32.765Z,14.69
2017-07-03T03:21:58.887Z,14.84
2017-07-03T03:22:25.027Z,14.81
2017-07-03T03:22:51.131Z,14.88
2017-07-03T03:23:17.299Z,14.92
2017-07-03T03:23:43.449Z,14.91
2017-07-03T03:24:09.608Z,14.82
2017-07-03T03:24:35.723Z,14.97
2017-07-03T03:25:01.858Z,14.94
2017-07-03T03:25:28.019Z,14.97
2017-07-03T03:25:54.148Z,14.91
2017-07-03T03:26:20.301Z,14.99
2017-07-03T03:26:46.434Z,14.97
2017-07-03T03:27:12.583Z,15.04
2017-07-03T03:27:38.739Z,14.99
2017-07-03T03:28:04.956Z,15.02
2017-07-03T03:28:31.134Z,14.97
2017-07-03T03:28:57.295Z,14.89
2017-07-03T03:29:23.461Z,14.99
2017-07-03T03:29:49.628Z,14.97
2017-07-03T03:30:15.799Z,14.96
2017-07-03T03:30:41.949Z,14.96
2017-07-03T03:31:08.050Z,14.92
2017-07-03T03:31:34.160Z,14.94
2017-07-03T03:32:00.278Z,14.84
2017-07-03T03:32:26.415Z,14.86
2017-07-03T03:32:52.554Z,14.91
2017-07-03T03:33:18.664Z,14.84
2017-07-03T03:33:44.769Z,14.82
2017-07-03T03:34:10.874Z,14.86
2017-07-03T03:34:37.053Z,14.91
2017-07-03T03:35:03.163Z,14.89
2017-07-03T03:35:29.309Z,14.86
2017-07-03T03:35:55.410Z,14.94
2017-07-03T03:36:21.520Z,14.79
2017-07-03T03:36:47.639Z,14.94
2017-07-03T03:37:13.769Z,14.72
2017-07-03T03:37:39.928Z,14.72
2017-07-03T03:38:06.143Z,14.65
2017-07-03T03:38:32.315Z,14.66
2017-07-03T03:38:58.473Z,14.66
2017-07-03T03:39:24.619Z,14.6
2017-07-03T03:39:50.855Z,14.58
2017-07-03T03:40:16.989Z,14.65
2017-07-03T03:40:43.133Z,14.54
2017-07-03T03:41:09.282Z,14.65
2017-07-03T03:41:35.440Z,14.59
2017-07-03T03:42:01.612Z,14.62
2017-07-03T03:42:27.730Z,14.58
2017-07-03T03:42:53.834Z,14.68
2017-07-03T03:43:19.970Z,14.66
2017-07-03T03:43:46.154Z,14.55
2017-07-03T03:44:12.259Z,14.55
2017-07-03T03:44:38.416Z,14.65
2017-07-03T03:45:04.569Z,14.58
2017-07-03T03:45:30.683Z,14.53
2017-07-03T03:45:56.842Z,14.54
2017-07-03T03:46:22.984Z,14.59
2017-07-03T03:46:49.145Z,14.6
2017-07-03T03:47:15.268Z,14.55
2017-07-03T03:47:41.402Z,14.47
2017-07-03T03:48:07.502Z,14.45
2017-07-03T03:48:33.660Z,14.6
2017-07-03T03:48:59.795Z,14.53
2017-07-03T03:49:25.927Z,14.53
2017-07-03T03:49:52.101Z,14.53
2017-07-03T03:50:18.215Z,14.51
2017-07-03T03:50:44.343Z,14.59
2017-07-03T03:51:10.517Z,14.43
2017-07-03T03:51:36.630Z,14.55
2017-07-03T03:52:02.822Z,14.53
2017-07-03T03:52:28.931Z,14.47
2017-07-03T03:52:55.061Z,14.41
2017-07-03T03:53:21.208Z,14.43
2017-07-03T03:53:47.385Z,14.37
2017-07-03T03:54:13.571Z,14.37
2017-07-03T03:54:39.716Z,14.32
2017-07-03T03:55:05.928Z,14.35
2017-07-03T03:55:32.028Z,14.29
2017-07-03T03:55:58.172Z,14.29
2017-07-03T03:56:24.321Z,14.23
2017-07-03T03:56:50.427Z,14.22
2017-07-03T03:57:16.565Z,14.23
2017-07-03T03:57:42.710Z,14.23
2017-07-03T03:58:08.851Z,14.2
2017-07-03T03:58:35.002Z,14.23
2017-07-03T03:59:01.157Z,14.2
2017-07-03T03:59:27.330Z,14.25
2017-07-03T03:59:53.481Z,14.23
2017-07-03T04:00:19.575Z,14.18
2017-07-03T04:00:45.686Z,14.23
2017-07-03T04:01:11.835Z,14.22
2017-07-03T04:01:37.944Z,14.26
2017-07-03T04:02:04.110Z,14.28
2017-07-03T04:02:30.195Z,14.22
2017-07-03T04:02:56.355Z,14.23
2017-07-03T04:03:22.467Z,14.15
2017-07-03T04:03:48.573Z,14.23
2017-07-03T04:04:14.706Z,14.11
2017-07-03T04:04:40.861Z,14.15
2017-07-03T04:05:06.969Z,14.2
2017-07-03T04:05:33.105Z,14.2
2017-07-03T04:05:59.255Z,14.2
2017-07-03T04:06:25.430Z,14.18
2017-07-03T04:06:51.535Z,14.23
2017-07-03T04:07:17.683Z,14.23
2017-07-03T04:07:43.796Z,14.23
2017-07-03T04:08:09.925Z,14.28
2017-07-03T04:08:36.044Z,14.17
2017-07-03T04:09:02.146Z,14.26
2017-07-03T04:09:28.330Z,14.23
2017-07-03T04:09:54.491Z,14.26
2017-07-03T04:10:20.596Z,14.23
2017-07-03T04:10:46.744Z,14.23
2017-07-03T04:11:12.857Z,14.11
2017-07-03T04:11:39.010Z,14.11
2017-07-03T04:12:05.156Z,14.26
2017-07-03T04:12:31.275Z,14.25
2017-07-03T04:12:57.433Z,14.26
2017-07-03T04:13:23.573Z,14.26
2017-07-03T04:13:49.779Z,14.17
2017-07-03T04:14:15.941Z,14.29
2017-07-03T04:14:42.081Z,14.33
2017-07-03T04:15:08.233Z,14.33
2017-07-03T04:15:34.377Z,14.37
2017-07-03T04:16:00.496Z,14.4
2017-07-03T04:16:26.623Z,14.44
2017-07-03T04:16:52.764Z,14.4
2017-07-03T04:17:18.884Z,14.35
2017-07-03T04:17:44.989Z,14.33
2017-07-03T04:18:11.123Z,14.36
2017-07-03T04:18:37.343Z,14.37
2017-07-03T04:19:03.440Z,14.33
2017-07-03T04:19:29.573Z,14.37
2017-07-03T04:19:55.689Z,14.35
2017-07-03T04:20:21.829Z,14.35
2017-07-03T04:20:47.983Z,14.33
2017-07-03T04:21:14.084Z,14.4
2017-07-03T04:21:40.275Z,14.35
2017-07-03T04:22:06.427Z,14.37
2017-07-03T04:22:32.535Z,14.37
2017-07-03T04:22:58.731Z,14.35
2017-07-03T04:23:24.873Z,14.36
2017-07-03T04:23:51.034Z,14.33
2017-07-03T04:24:17.165Z,14.32
2017-07-03T04:24:43.342Z,14.28
2017-07-03T04:25:09.485Z,14.3
2017-07-03T04:25:35.585Z,14.28
2017-07-03T04:26:01.701Z,14.33
2017-07-03T04:26:27.821Z,14.35
2017-07-03T04:26:53.915Z,14.33
2017-07-03T04:27:20.058Z,14.4
2017-07-03T04:27:46.208Z,14.33
2017-07-03T04:28:12.342Z,14.33
2017-07-03T04:28:38.480Z,14.43
2017-07-03T04:29:04.666Z,14.41
2017-07-03T04:29:30.829Z,14.4
2017-07-03T04:29:56.957Z,14.36
2017-07-03T04:30:23.082Z,14.4
2017-07-03T04:30:49.248Z,14.32
2017-07-03T04:31:15.395Z,14.4
2017-07-03T04:31:41.524Z,14.32
2017-07-03T04:32:07.664Z,14.36
2017-07-03T04:32:33.812Z,14.37
2017-07-03T04:32:59.920Z,14.4
2017-07-03T04:33:26.052Z,14.4
2017-07-03T04:33:52.234Z,14.37
2017-07-03T04:34:18.399Z,14.37
2017-07-03T04:34:44.554Z,14.28
2017-07-03T04:35:10.697Z,14.4
2017-07-03T04:35:36.808Z,14.32
2017-07-03T04:36:02.936Z,14.3
2017-07-03T04:36:29.077Z,14.35
2017-07-03T04:36:55.180Z,14.33
2017-07-03T04:37:21.336Z,14.4
2017-07-03T04:37:47.478Z,14.33
2017-07-03T04:38:13.685Z,14.32
2017-07-03T04:38:39.837Z,14.33
2017-07-03T04:39:06.044Z,14.36
2017-07-03T04:39:32.208Z,14.37
2017-07-03T04:39:58.322Z,14.44
2017-07-03T04:40:24.469Z,14.41
2017-07-03T04:40:50.594Z,14.4
2017-07-03T04:41:16.709Z,14.54
2017-07-03T04:41:42.831Z,14.48
2017-07-03T04:42:08.963Z,14.5
2017-07-03T04:42:35.107Z,14.48
2017-07-03T04:43:01.214Z,14.53
2017-07-03T04:43:27.363Z,14.5
2017-07-03T04:43:53.548Z,14.55
2017-07-03T04:44:19.648Z,14.59
2017-07-03T04:44:45.758Z,14.66
2017-07-03T04:45:11.907Z,14.7
2017-07-03T04:45:38.039Z,15.02
2017-07-03T04:46:04.154Z,15.19
2017-07-03T04:46:30.271Z,15.43
2017-07-03T04:46:56.411Z,15.64
2017-07-03T04:47:22.540Z,16.05
2017-07-03T04:47:48.709Z,16.39
2017-07-03T04:48:14.849Z,16.58
2017-07-03T04:48:41.009Z,16.9
2017-07-03T04:49:07.133Z,17.16
2017-07-03T04:49:33.296Z,17.44
2017-07-03T04:49:59.509Z,17.86
2017-07-03T04:50:25.640Z,17.98
2017-07-03T04:50:51.794Z,18.28
2017-07-03T04:51:17.950Z,18.65
2017-07-03T04:51:44.060Z,18.92
2017-07-03T04:52:10.166Z,19.26
2017-07-03T04:52:36.374Z,19.36
2017-07-03T04:53:02.553Z,19.59
2017-07-03T04:53:28.665Z,19.82
2017-07-03T04:53:54.804Z,20.03
2017-07-03T04:54:20.967Z,20.03
2017-07-03T04:54:47.176Z,20.25
2017-07-03T04:55:13.288Z,20.44
2017-07-03T04:55:39.391Z,20.41
2017-07-03T04:56:05.508Z,20.43
2017-07-03T04:56:31.654Z,20.48
2017-07-03T04:56:57.783Z,20.6
2017-07-03T04:57:23.898Z,20.66
2017-07-03T04:57:50.055Z,20.56
2017-07-03T04:58:16.155Z,20.6
2017-07-03T04:58:42.298Z,20.44
2017-07-03T04:59:08.437Z,20.43
2017-07-03T04:59:34.587Z,20.37
2017-07-03T05:00:00.701Z,20.4
2017-07-03T05:00:26.806Z,20.59
2017-07-03T05:00:52.977Z,20.75
2017-07-03T05:01:19.134Z,20.75
2017-07-03T05:01:45.293Z,20.88
2017-07-03T05:02:11.462Z,20.8
2017-07-03T05:02:37.644Z,20.9
2017-07-03T05:03:03.781Z,20.96
2017-07-03T05:03:29.947Z,21.15
2017-07-03T05:03:56.103Z,21.39
2017-07-03T05:04:22.297Z,21.54
2017-07-03T05:04:48.418Z,21.76
2017-07-03T05:05:14.550Z,21.98
2017-07-03T05:05:40.690Z,22
2017-07-03T05:06:06.844Z,22.11
2017-07-03T05:06:33.005Z,22.13
2017-07-03T05:06:59.142Z,22.26
2017-07-03T05:07:25.261Z,22.39
2017-07-03T05:07:51.399Z,22.39
2017-07-03T05:08:17.616Z,22.54
2017-07-03T05:08:43.893Z,22.54
2017-07-03T05:09:10.037Z,22.6
2017-07-03T05:09:36.196Z,22.59
2017-07-03T05:10:02.408Z,22.47
2017-07-03T05:10:28.548Z,22.25
2017-07-03T05:10:54.656Z,22.26
2017-07-03T05:11:20.803Z,22.22
2017-07-03T05:11:46.957Z,22.29
2017-07-03T05:12:13.091Z,22.51
2017-07-03T05:12:39.232Z,22.53
2017-07-03T05:13:05.355Z,22.47
2017-07-03T05:13:31.455Z,22.47
2017-07-03T05:13:57.570Z,22.51
2017-07-03T05:14:23.693Z,22.66
2017-07-03T05:14:49.863Z,22.66
2017-07-03T05:15:15.968Z,22.72
2017-07-03T05:15:42.146Z,22.84
2017-07-03T05:16:08.260Z,22.94
2017-07-03T05:16:34.410Z,22.93
2017-07-03T05:17:00.545Z,22.85
2017-07-03T05:17:26.687Z,22.69
2017-07-03T05:17:52.867Z,22.54
2017-07-03T05:18:19.031Z,22.39
2017-07-03T05:18:45.196Z,22.14
2017-07-03T05:19:11.317Z,22.02
2017-07-03T05:19:37.520Z,22.02
2017-07-03T05:20:03.650Z,21.93
2017-07-03T05:20:29.801Z,21.7
2017-07-03T05:20:55.914Z,21.75
2017-07-03T05:21:22.057Z,21.52
2017-07-03T05:21:48.247Z,21.21
2017-07-03T05:22:14.352Z,21.21
2017-07-03T05:22:40.476Z,21.06
2017-07-03T05:23:06.648Z,20.87
2017-07-03T05:23:32.810Z,20.59
2017-07-03T05:23:58.960Z,20.59
2017-07-03T05:24:25.134Z,20.31
2017-07-03T05:24:51.294Z,20.07
2017-07-03T05:25:17.471Z,19.91
2017-07-03T05:25:43.590Z,19.88
2017-07-03T05:26:09.756Z,19.59
2017-07-03T05:26:35.868Z,19.48
2017-07-03T05:27:02.004Z,19.44
2017-07-03T05:27:28.159Z,19.44
2017-07-03T05:27:54.273Z,19.48
2017-07-03T05:28:20.377Z,19.55
2017-07-03T05:28:46.522Z,19.49
2017-07-03T05:29:12.704Z,19.27
2017-07-03T05:29:38.863Z,19.09
2017-07-03T05:30:05.061Z,19.14
2017-07-03T05:30:31.210Z,19.04
2017-07-03T05:30:57.374Z,18.89
2017-07-03T05:31:23.485Z,18.8
2017-07-03T05:31:49.604Z,18.75
2017-07-03T05:32:15.734Z,18.62
2017-07-03T05:32:41.886Z,18.35
2017-07-03T05:33:07.988Z,18.35
2017-07-03T05:33:34.164Z,18.37
2017-07-03T05:34:00.342Z,18.33
2017-07-03T05:34:26.531Z,18.35
2017-07-03T05:34:52.750Z,18.41
2017-07-03T05:35:18.905Z,18.33
2017-07-03T05:35:45.011Z,18.43
2017-07-03T05:36:11.146Z,18.44
2017-07-03T05:36:37.296Z,18.34
2017-07-03T05:37:03.437Z,18.19
2017-07-03T05:37:29.575Z,18.13
2017-07-03T05:37:55.696Z,18.07